createdAt,value
2022-09-15T00:02:25.229Z,15.27
2022-09-15T00:04:51.858Z,15.26
2022-09-15T00:07:18.351Z,15.27
2022-09-15T00:09:44.842Z,15.25
2022-09-15T00:12:11.323Z,15.25
2022-09-15T00:14:37.781Z,15.27
2022-09-15T00:17:04.645Z,15.28
2022-09-15T00:19:31.180Z,15.26
2022-09-15T00:21:57.780Z,15.24
2022-09-15T00:24:24.324Z,15.24
2022-09-15T00:26:50.780Z,15.26
2022-09-15T00:29:17.252Z,15.27
2022-09-15T00:31:43.711Z,15.27
2022-09-15T00:34:13.131Z,15.28
2022-09-15T00:36:39.662Z,15.25
2022-09-15T00:39:06.331Z,15.22
2022-09-15T00:41:32.888Z,15.21
2022-09-15T00:44:02.773Z,15.23
2022-09-15T00:46:38.071Z,15.23
2022-09-15T00:49:13.190Z,15.25
2022-09-15T00:51:58.119Z,15.24
2022-09-15T00:54:29.222Z,15.23
2022-09-15T00:56:59.290Z,15.20
2022-09-15T00:59:30.126Z,15.21
2022-09-15T01:02:08.487Z,15.23
2022-09-15T01:04:35.380Z,15.23
2022-09-15T01:07:05.790Z,15.23
2022-09-15T01:09:41.758Z,15.22
2022-09-15T01:12:08.292Z,15.20
2022-09-15T01:14:34.759Z,15.02
2022-09-15T01:20:41.115Z,15.06
2022-09-15T01:23:22.839Z,14.96
2022-09-15T01:26:25.501Z,14.94
2022-09-15T01:29:33.795Z,15.00
2022-09-15T01:32:37.345Z,14.98
2022-09-15T01:35:12.964Z,14.86
2022-09-15T01:37:49.418Z,14.87
2022-09-15T01:40:18.773Z,14.91
2022-09-15T01:42:46.757Z,14.95
2022-09-15T01:45:23.779Z,14.98
2022-09-15T01:47:54.087Z,15.01
2022-09-15T01:50:26.218Z,14.99
2022-09-15T01:52:57.035Z,14.90
2022-09-15T01:55:38.084Z,14.86
2022-09-15T01:58:05.167Z,14.89
2022-09-15T02:00:35.490Z,14.86
2022-09-15T02:03:25.268Z,14.83
2022-09-15T02:06:02.191Z,14.82
2022-09-15T02:08:39.826Z,14.78
2022-09-15T02:11:20.855Z,14.75
2022-09-15T02:14:00.734Z,14.74
2022-09-15T02:16:32.937Z,14.72
2022-09-15T02:19:31.252Z,14.69
2022-09-15T02:22:07.732Z,14.66
2022-09-15T02:24:44.954Z,14.68
2022-09-15T02:27:22.232Z,14.68
2022-09-15T02:29:50.154Z,14.68
2022-09-15T02:32:19.267Z,14.68
2022-09-15T02:34:47.806Z,14.66
2022-09-15T02:37:15.321Z,14.69
2022-09-15T02:39:49.207Z,14.68
2022-09-15T02:42:24.603Z,14.67
2022-09-15T02:44:51.366Z,14.67
2022-09-15T02:47:17.861Z,14.66
2022-09-15T02:49:44.345Z,14.67
2022-09-15T02:52:10.827Z,14.71
2022-09-15T02:54:38.020Z,14.71
2022-09-15T02:57:05.076Z,14.73
2022-09-15T02:59:51.535Z,14.73
2022-09-15T03:02:20.449Z,14.74
2022-09-15T03:04:47.814Z,14.73
2022-09-15T03:07:14.556Z,14.77
2022-09-15T03:09:41.578Z,14.77
2022-09-15T03:12:09.354Z,14.78
2022-09-15T03:14:36.298Z,14.79
2022-09-15T03:17:03.456Z,14.78
2022-09-15T03:19:30.353Z,14.81
2022-09-15T03:21:57.186Z,14.77
2022-09-15T03:24:23.672Z,14.68
2022-09-15T03:26:50.162Z,14.69
2022-09-15T03:29:16.655Z,14.71
2022-09-15T03:31:43.169Z,14.73
2022-09-15T03:34:09.671Z,14.75
2022-09-15T03:36:36.215Z,14.77
2022-09-15T03:39:02.761Z,14.79
2022-09-15T03:41:29.447Z,14.80
2022-09-15T03:43:56.732Z,14.81
2022-09-15T03:46:23.465Z,14.82
2022-09-15T03:48:49.946Z,14.81
2022-09-15T03:51:16.410Z,14.82
2022-09-15T03:53:42.985Z,14.85
2022-09-15T03:56:24.678Z,14.84
2022-09-15T03:58:51.444Z,14.85
2022-09-15T04:01:19.071Z,14.85
2022-09-15T04:03:50.647Z,14.86
2022-09-15T04:06:22.001Z,14.88
2022-09-15T04:08:50.049Z,14.88
2022-09-15T04:11:17.820Z,14.84
2022-09-15T04:13:44.986Z,14.86
2022-09-15T04:16:25.329Z,14.86
2022-09-15T04:18:55.473Z,14.83
2022-09-15T04:21:25.065Z,14.77
2022-09-15T04:23:52.171Z,14.74
2022-09-15T04:26:26.129Z,14.64
2022-09-15T04:28:52.741Z,14.68
2022-09-15T04:31:20.361Z,14.75
2022-09-15T04:33:47.924Z,14.80
2022-09-15T04:36:17.162Z,14.83
2022-09-15T04:38:44.884Z,14.86
2022-09-15T04:41:12.410Z,14.85
2022-09-15T04:43:38.956Z,14.84
2022-09-15T04:46:05.698Z,14.83
2022-09-15T04:48:32.410Z,14.74
2022-09-15T04:51:07.147Z,14.70
2022-09-15T04:53:33.825Z,14.75
2022-09-15T04:56:09.221Z,14.80
2022-09-15T04:59:00.884Z,14.86
2022-09-15T05:01:32.329Z,14.90
2022-09-15T05:03:59.078Z,14.92
2022-09-15T05:06:27.289Z,14.93
2022-09-15T05:08:56.876Z,14.95
2022-09-15T05:11:24.986Z,14.95
2022-09-15T05:13:51.540Z,14.97
2022-09-15T05:16:23.467Z,15.00
2022-09-15T05:18:51.585Z,14.91
2022-09-15T05:21:20.185Z,14.93
2022-09-15T05:23:47.473Z,14.97
2022-09-15T05:26:20.076Z,15.01
2022-09-15T05:28:47.179Z,15.06
2022-09-15T05:31:18.188Z,15.10
2022-09-15T05:33:45.903Z,15.08
2022-09-15T05:36:15.065Z,15.10
2022-09-15T05:38:41.518Z,15.05
2022-09-15T05:41:11.389Z,15.03
2022-09-15T05:43:39.564Z,15.08
2022-09-15T05:46:07.663Z,15.10
2022-09-15T05:48:34.478Z,15.12
2022-09-15T05:51:00.978Z,15.16
2022-09-15T05:53:28.370Z,15.20
2022-09-15T05:55:59.634Z,15.26
2022-09-15T05:58:27.474Z,15.29
2022-09-15T06:00:54.533Z,15.35
2022-09-15T06:03:22.169Z,15.41
2022-09-15T06:05:48.793Z,15.45
2022-09-15T06:08:15.842Z,15.47
2022-09-15T06:10:42.359Z,15.44
2022-09-15T06:13:08.994Z,15.38
2022-09-15T06:15:35.501Z,15.41
2022-09-15T06:18:02.800Z,15.47
2022-09-15T06:20:29.307Z,15.49
2022-09-15T06:22:57.292Z,15.55
2022-09-15T06:25:23.766Z,15.63
2022-09-15T06:27:50.657Z,15.69
2022-09-15T06:30:17.901Z,15.73
2022-09-15T06:32:48.035Z,15.80
2022-09-15T06:35:33.671Z,15.86
2022-09-15T06:38:00.165Z,15.93
2022-09-15T06:40:26.770Z,15.99
2022-09-15T06:42:57.218Z,16.09
2022-09-15T06:45:23.705Z,16.15
2022-09-15T06:48:07.587Z,16.21
2022-09-15T06:50:39.314Z,16.29
2022-09-15T06:53:05.766Z,16.34
2022-09-15T06:55:32.937Z,16.41
2022-09-15T06:57:59.452Z,16.49
2022-09-15T07:00:25.947Z,16.58
2022-09-15T07:02:53.014Z,16.64
2022-09-15T07:05:19.526Z,16.68
2022-09-15T07:07:46.297Z,16.73
2022-09-15T07:10:12.791Z,16.77
2022-09-15T07:12:39.278Z,16.81
2022-09-15T07:15:06.262Z,16.84
2022-09-15T07:17:32.730Z,16.86
2022-09-15T07:20:00.512Z,16.88
2022-09-15T07:22:26.994Z,16.90
2022-09-15T07:24:53.583Z,16.89
2022-09-15T07:27:20.140Z,16.85
2022-09-15T07:29:46.721Z,16.83
2022-09-15T07:32:13.186Z,16.84
2022-09-15T07:34:39.639Z,16.79
2022-09-15T07:37:06.489Z,16.77
2022-09-15T07:39:33.177Z,16.73
2022-09-15T07:41:59.664Z,16.70
2022-09-15T07:44:26.208Z,16.69
2022-09-15T07:46:52.658Z,16.69
2022-09-15T07:49:19.137Z,16.72
2022-09-15T07:51:45.583Z,16.75
2022-09-15T07:54:12.313Z,16.78
2022-09-15T07:56:38.772Z,16.78
2022-09-15T07:59:05.272Z,16.78
2022-09-15T08:01:31.823Z,16.83
2022-09-15T08:03:58.822Z,16.85
2022-09-15T08:06:26.728Z,16.88
2022-09-15T08:08:59.337Z,16.94
2022-09-15T08:11:27.177Z,17.01
2022-09-15T08:13:53.846Z,17.09
2022-09-15T08:16:23.151Z,17.16
2022-09-15T08:18:52.005Z,17.24
2022-09-15T08:21:21.040Z,17.32
2022-09-15T08:23:56.205Z,17.39
2022-09-15T08:26:23.596Z,17.48
2022-09-15T08:28:50.198Z,17.53
2022-09-15T08:31:18.037Z,17.61
2022-09-15T08:33:49.712Z,17.71
2022-09-15T08:36:16.257Z,17.77
2022-09-15T08:38:44.468Z,17.85
2022-09-15T08:41:20.132Z,17.87
2022-09-15T08:44:05.778Z,17.89
2022-09-15T08:46:41.499Z,17.94
2022-09-15T08:49:30.538Z,17.98
2022-09-15T08:52:11.132Z,18.01
2022-09-15T08:54:38.316Z,18.06
2022-09-15T08:57:08.944Z,18.03
2022-09-15T08:59:35.928Z,18.04
2022-09-15T09:02:23.500Z,18.04
2022-09-15T09:05:29.567Z,18.07
2022-09-15T09:08:37.623Z,18.12
2022-09-15T09:11:26.100Z,18.19
2022-09-15T09:14:08.625Z,18.23
2022-09-15T09:17:07.995Z,18.29
2022-09-15T09:19:42.597Z,18.33
2022-09-15T09:22:24.330Z,18.35
2022-09-15T09:24:55.172Z,18.38
2022-09-15T09:27:29.217Z,18.38
2022-09-15T09:30:10.888Z,18.38
2022-09-15T09:33:02.155Z,18.37
2022-09-15T09:35:45.166Z,18.41
2022-09-15T09:38:17.829Z,18.44
2022-09-15T09:40:44.688Z,18.47
2022-09-15T09:43:11.409Z,18.52
2022-09-15T09:45:37.950Z,18.53
2022-09-15T09:48:20.640Z,18.54
2022-09-15T09:50:47.961Z,18.59
2022-09-15T09:53:31.102Z,18.63
2022-09-15T09:56:17.708Z,18.67
2022-09-15T09:58:45.055Z,18.76
2022-09-15T10:01:19.903Z,18.82
2022-09-15T10:03:47.107Z,18.90
2022-09-15T10:06:16.920Z,18.97
2022-09-15T10:08:57.841Z,19.03
2022-09-15T10:11:50.887Z,19.08
2022-09-15T10:14:41.308Z,19.14
2022-09-15T10:17:20.226Z,19.22
2022-09-15T10:19:52.817Z,19.27
2022-09-15T10:22:30.676Z,19.32
2022-09-15T10:25:02.225Z,19.36
2022-09-15T10:27:34.042Z,19.41
2022-09-15T10:30:12.889Z,19.42
2022-09-15T10:32:39.647Z,19.42
2022-09-15T10:35:19.533Z,19.46
2022-09-15T10:37:55.127Z,19.49
2022-09-15T10:40:41.883Z,19.52
2022-09-15T10:43:11.126Z,19.56
2022-09-15T10:45:48.435Z,19.60
2022-09-15T10:48:30.163Z,19.63
2022-09-15T10:51:31.384Z,19.64
2022-09-15T10:54:18.428Z,19.64
2022-09-15T10:56:49.378Z,19.63
2022-09-15T10:59:34.595Z,19.60
2022-09-15T11:02:27.950Z,19.59
2022-09-15T11:05:08.411Z,19.62
2022-09-15T11:08:02.347Z,19.62
2022-09-15T11:10:45.372Z,19.63
2022-09-15T11:13:30.154Z,19.65
2022-09-15T11:16:07.035Z,19.63
2022-09-15T11:19:15.400Z,19.62
2022-09-15T11:21:56.825Z,19.61
2022-09-15T11:24:35.286Z,19.57
2022-09-15T11:27:31.165Z,19.52
2022-09-15T11:30:16.421Z,19.54
2022-09-15T11:32:46.297Z,19.51
2022-09-15T11:35:26.370Z,19.47
2022-09-15T11:37:56.922Z,19.40
2022-09-15T11:40:36.992Z,19.36
2022-09-15T11:43:14.299Z,19.32
2022-09-15T11:45:46.906Z,19.34
2022-09-15T11:48:23.740Z,19.34
2022-09-15T11:50:55.696Z,19.33
2022-09-15T11:53:32.654Z,19.34
2022-09-15T11:56:30.841Z,19.31
2022-09-15T11:59:32.033Z,19.26
2022-09-15T12:02:22.668Z,19.24
2022-09-15T12:05:15.022Z,19.25
2022-09-15T12:07:58.333Z,19.28
2022-09-15T12:10:30.677Z,19.26
2022-09-15T12:12:59.802Z,19.18
2022-09-15T12:15:29.589Z,19.19
2022-09-15T12:18:06.473Z,19.19
2022-09-15T12:20:54.379Z,19.23
2022-09-15T12:23:32.842Z,19.24
2022-09-15T12:26:20.227Z,19.19
2022-09-15T12:28:46.641Z,19.18
2022-09-15T12:31:31.558Z,19.15
2022-09-15T12:33:59.642Z,19.16
2022-09-15T12:36:37.164Z,19.14
2022-09-15T12:39:20.919Z,19.16
2022-09-15T12:41:54.004Z,19.09
2022-09-15T12:44:32.052Z,18.97
2022-09-15T12:47:00.163Z,18.86
2022-09-15T12:49:32.622Z,18.73
2022-09-15T12:52:01.708Z,18.62
2022-09-15T12:54:33.139Z,18.57
2022-09-15T12:57:00.640Z,18.52
2022-09-15T12:59:28.970Z,18.49
2022-09-15T13:01:56.723Z,18.41
2022-09-15T13:04:51.208Z,18.39
2022-09-15T13:07:18.584Z,18.35
2022-09-15T13:10:05.020Z,18.31
2022-09-15T13:12:36.523Z,18.34
2022-09-15T13:15:07.035Z,18.35
2022-09-15T13:17:34.150Z,18.34
2022-09-15T13:20:09.885Z,18.31
2022-09-15T13:22:42.756Z,18.29
2022-09-15T13:25:10.784Z,18.29
2022-09-15T13:27:45.177Z,18.27
2022-09-15T13:30:20.791Z,18.29
2022-09-15T13:33:15.806Z,18.30
2022-09-15T13:35:51.710Z,18.31
2022-09-15T13:38:29.087Z,18.32
2022-09-15T13:41:04.014Z,18.30
2022-09-15T13:43:40.821Z,18.28
2022-09-15T13:46:30.165Z,18.26
2022-09-15T13:49:21.274Z,18.27
2022-09-15T13:51:59.653Z,18.32
2022-09-15T13:54:26.229Z,18.33
2022-09-15T13:56:53.311Z,18.39
2022-09-15T13:59:25.560Z,18.43
2022-09-15T14:01:53.947Z,18.44
2022-09-15T14:04:27.962Z,18.51
2022-09-15T14:07:00.792Z,18.59
2022-09-15T14:09:33.383Z,18.62
2022-09-15T14:12:04.970Z,18.68
2022-09-15T14:14:54.679Z,18.78
2022-09-15T14:17:30.154Z,18.85
2022-09-15T14:19:59.320Z,18.86
2022-09-15T14:22:33.994Z,18.81
2022-09-15T14:25:07.297Z,18.81
2022-09-15T14:27:35.888Z,18.86
2022-09-15T14:30:07.902Z,18.91
2022-09-15T14:32:39.023Z,18.97
2022-09-15T14:35:09.545Z,18.98
2022-09-15T14:37:36.532Z,18.98
2022-09-15T14:40:18.471Z,18.97
2022-09-15T14:42:44.979Z,19.00
2022-09-15T14:48:02.757Z,19.03
2022-09-15T14:50:33.341Z,19.03
2022-09-15T14:53:06.797Z,19.04
2022-09-15T14:55:51.666Z,19.06
2022-09-15T14:58:27.660Z,19.09
2022-09-15T15:01:02.990Z,19.11
2022-09-15T15:03:56.008Z,19.13
2022-09-15T15:06:38.578Z,19.16
2022-09-15T15:09:32.863Z,19.14
2022-09-15T15:12:11.056Z,19.10
2022-09-15T15:14:37.672Z,19.05
2022-09-15T15:17:08.506Z,19.02
2022-09-15T15:19:38.743Z,18.98
2022-09-15T15:22:20.080Z,18.97
2022-09-15T15:24:49.693Z,18.97
2022-09-15T15:27:32.375Z,18.97
2022-09-15T15:30:33.782Z,18.87
2022-09-15T15:33:17.430Z,18.76
2022-09-15T15:35:46.101Z,18.74
2022-09-15T15:38:16.720Z,18.76
2022-09-15T15:40:44.719Z,18.77
2022-09-15T15:43:13.892Z,18.77
2022-09-15T15:46:01.709Z,18.70
2022-09-15T15:48:37.885Z,18.69
2022-09-15T15:51:06.745Z,18.68
2022-09-15T15:53:34.334Z,18.69
2022-09-15T15:56:01.212Z,18.73
2022-09-15T15:58:28.080Z,18.74
2022-09-15T16:00:59.154Z,18.76
2022-09-15T16:03:25.756Z,18.78
2022-09-15T16:05:59.740Z,18.78
2022-09-15T16:08:31.911Z,18.78
2022-09-15T16:11:00.435Z,18.75
2022-09-15T16:13:27.277Z,18.74
2022-09-15T16:15:54.763Z,18.72
2022-09-15T16:18:21.503Z,18.69
2022-09-15T16:20:48.315Z,18.68
2022-09-15T16:23:17.412Z,18.67
2022-09-15T16:26:00.196Z,18.66
2022-09-15T16:28:27.068Z,18.59
2022-09-15T16:30:53.567Z,18.56
2022-09-15T16:33:20.590Z,18.54
2022-09-15T16:35:55.153Z,18.52
2022-09-15T16:38:25.446Z,18.50
2022-09-15T16:40:52.413Z,18.47
2022-09-15T16:43:21.564Z,18.44
2022-09-15T16:45:49.541Z,18.40
2022-09-15T16:48:16.109Z,18.39
2022-09-15T16:50:56.005Z,18.37
2022-09-15T16:53:31.044Z,18.35
2022-09-15T16:55:57.762Z,18.33
2022-09-15T16:58:24.261Z,18.30
2022-09-15T17:00:52.656Z,18.29
2022-09-15T17:03:22.756Z,18.27
2022-09-15T17:05:51.424Z,18.26
2022-09-15T17:08:20.073Z,18.17
2022-09-15T17:10:47.593Z,17.99
2022-09-15T17:13:18.926Z,17.87
2022-09-15T17:15:46.922Z,17.77
2022-09-15T17:18:15.511Z,17.65
2022-09-15T17:20:47.382Z,17.51
2022-09-15T17:23:19.805Z,17.52
2022-09-15T17:25:52.707Z,17.51
2022-09-15T17:28:24.792Z,17.56
2022-09-15T17:30:56.281Z,17.57
2022-09-15T17:33:24.195Z,17.59
2022-09-15T17:35:51.264Z,17.45
2022-09-15T17:38:21.998Z,17.42
2022-09-15T17:40:56.232Z,17.42
2022-09-15T17:43:28.482Z,17.40
2022-09-15T17:46:00.374Z,17.38
2022-09-15T17:48:28.955Z,17.31
2022-09-15T17:50:55.531Z,17.24
2022-09-15T17:53:27.888Z,17.26
2022-09-15T17:55:55.805Z,17.32
2022-09-15T17:58:23.753Z,17.37
2022-09-15T18:00:50.970Z,17.40
2022-09-15T18:03:28.154Z,17.43
2022-09-15T18:05:59.444Z,17.46
2022-09-15T18:08:27.560Z,17.48
2022-09-15T18:10:54.046Z,17.46
2022-09-15T18:13:23.509Z,17.44
2022-09-15T18:15:50.630Z,17.46
2022-09-15T18:18:20.355Z,17.45
2022-09-15T18:20:47.828Z,17.41
2022-09-15T18:23:17.029Z,17.41
2022-09-15T18:25:44.367Z,17.41
2022-09-15T18:28:10.919Z,17.37
2022-09-15T18:30:42.468Z,17.35
2022-09-15T18:33:16.378Z,17.30
2022-09-15T18:35:43.683Z,17.27
2022-09-15T18:38:11.369Z,17.20
2022-09-15T18:40:37.942Z,17.12
2022-09-15T18:43:04.447Z,17.10
2022-09-15T18:45:31.377Z,17.14
2022-09-15T18:47:57.868Z,17.15
2022-09-15T18:50:25.296Z,17.12
2022-09-15T18:52:51.787Z,17.03
2022-09-15T18:55:22.092Z,16.97
2022-09-15T18:57:49.360Z,16.98
2022-09-15T19:00:19.391Z,17.01
2022-09-15T19:02:47.247Z,17.05
2022-09-15T19:05:15.689Z,17.02
2022-09-15T19:07:43.529Z,17.03
2022-09-15T19:10:12.017Z,17.05
2022-09-15T19:12:38.986Z,17.05
2022-09-15T19:15:10.861Z,17.06
2022-09-15T19:17:39.301Z,17.05
2022-09-15T19:20:08.524Z,17.04
2022-09-15T19:22:35.965Z,17.03
2022-09-15T19:25:03.335Z,16.93
2022-09-15T19:27:29.974Z,16.90
2022-09-15T19:29:56.472Z,16.85
2022-09-15T19:32:23.433Z,16.82
2022-09-15T19:34:50.227Z,16.76
2022-09-15T19:37:19.129Z,16.76
2022-09-15T19:39:46.621Z,16.73
2022-09-15T19:44:46.009Z,16.64
2022-09-15T19:47:12.502Z,16.60
2022-09-15T19:49:39.043Z,16.59
2022-09-15T19:52:06.515Z,16.58
2022-09-15T19:54:34.396Z,16.60
2022-09-15T19:57:01.514Z,16.62
2022-09-15T19:59:31.340Z,16.52
2022-09-15T20:01:59.100Z,16.48
2022-09-15T20:05:34.952Z,16.40
2022-09-15T20:08:02.740Z,16.35
2022-09-15T20:10:30.009Z,16.37
2022-09-15T20:12:57.385Z,16.41
2022-09-15T20:15:24.701Z,16.42
2022-09-15T20:17:52.372Z,16.42
2022-09-15T20:20:19.582Z,16.41
2022-09-15T20:22:47.368Z,16.37
2022-09-15T20:25:14.633Z,16.36
2022-09-15T20:27:42.112Z,16.37
2022-09-15T20:30:24.659Z,16.37
2022-09-15T20:35:35.210Z,16.30
2022-09-15T20:38:01.884Z,16.26
2022-09-15T20:40:28.467Z,16.24
2022-09-15T20:42:55.071Z,16.26
2022-09-15T20:45:21.621Z,16.19
2022-09-15T20:47:48.244Z,16.15
2022-09-15T20:50:17.135Z,16.16
2022-09-15T20:52:44.501Z,16.16
2022-09-15T20:55:11.052Z,16.17
2022-09-15T20:57:37.741Z,16.21
2022-09-15T21:00:06.399Z,16.22
2022-09-15T21:02:33.102Z,16.22
2022-09-15T21:04:59.729Z,16.23
2022-09-15T21:07:26.269Z,16.24
2022-09-15T21:09:52.837Z,16.19
2022-09-15T21:12:19.387Z,16.12
2022-09-15T21:14:46.041Z,16.11
2022-09-15T21:17:12.630Z,16.14
2022-09-15T21:19:40.160Z,16.17
2022-09-15T21:22:06.685Z,16.20
2022-09-15T21:24:33.212Z,16.22
2022-09-15T21:27:17.984Z,16.21
2022-09-15T21:29:45.165Z,16.19
2022-09-15T21:32:11.736Z,16.16
2022-09-15T21:34:38.272Z,16.16
2022-09-15T21:37:04.993Z,16.18
2022-09-15T21:39:31.540Z,16.19
2022-09-15T21:41:58.140Z,16.19
2022-09-15T21:44:25.112Z,16.11
2022-09-15T21:46:52.753Z,16.08
2022-09-15T21:49:20.154Z,16.10
2022-09-15T21:51:46.754Z,16.10
2022-09-15T21:54:13.863Z,16.11
2022-09-15T21:56:41.140Z,16.10
2022-09-15T21:59:10.768Z,16.11
2022-09-15T22:01:37.301Z,16.12
2022-09-15T22:04:08.068Z,16.12
2022-09-15T22:06:37.143Z,16.10
2022-09-15T22:09:05.204Z,16.08
2022-09-15T22:11:32.650Z,16.07
2022-09-15T22:14:01.764Z,16.04
2022-09-15T22:16:28.572Z,16.00
2022-09-15T22:18:56.456Z,16.02
2022-09-15T22:21:26.352Z,16.02
2022-09-15T22:23:59.171Z,16.02
2022-09-15T22:26:28.954Z,15.98
2022-09-15T22:28:56.227Z,15.93
2022-09-15T22:31:24.345Z,15.94
2022-09-15T22:33:51.388Z,15.95
2022-09-15T22:36:28.117Z,15.95
2022-09-15T22:38:56.888Z,15.95
2022-09-15T22:41:25.865Z,15.94
2022-09-15T22:43:52.595Z,15.93
2022-09-15T22:46:19.826Z,15.96
2022-09-15T22:48:46.673Z,15.95
2022-09-15T22:51:14.703Z,15.96
2022-09-15T22:53:41.480Z,15.96
2022-09-15T22:56:14.755Z,15.95
2022-09-15T22:58:43.922Z,15.94
2022-09-15T23:01:14.366Z,15.85
2022-09-15T23:03:41.305Z,15.73
2022-09-15T23:06:08.049Z,15.65
2022-09-15T23:08:35.277Z,15.66
2022-09-15T23:11:10.254Z,15.72
2022-09-15T23:13:36.783Z,15.73
2022-09-15T23:16:04.430Z,15.74
2022-09-15T23:18:31.950Z,15.73
2022-09-15T23:21:00.895Z,15.73
2022-09-15T23:23:28.182Z,15.63
2022-09-15T23:25:55.446Z,15.59
2022-09-15T23:28:23.393Z,15.57
2022-09-15T23:30:54.540Z,15.52
2022-09-15T23:33:22.626Z,15.54
2022-09-15T23:35:49.887Z,15.56
2022-09-15T23:38:17.766Z,15.58
2022-09-15T23:40:45.343Z,15.54
2022-09-15T23:43:12.898Z,15.53
2022-09-15T23:45:40.042Z,15.52
2022-09-15T23:48:10.988Z,15.40
2022-09-15T23:50:38.659Z,15.40
2022-09-15T23:53:05.734Z,15.40
2022-09-15T23:55:32.856Z,15.35
2022-09-15T23:57:59.411Z,15.31
